sensor_id;sensor_type;location;lat;lon;timestamp;temperature;humidity
4787;DHT22;62338;48.832;9.422;2023-05-10T00:01:49;12.20;99.90
4787;DHT22;62338;48.832;9.422;2023-05-10T00:03:51;12.20;99.90
4787;DHT22;62338;48.832;9.422;2023-05-10T00:05:53;12.20;99.90
4787;DHT22;62338;48.832;9.422;2023-05-10T00:07:55;12.10;99.90
4787;DHT22;62338;48.832;9.422;2023-05-10T00:09:56;12.10;99.90
4787;DHT22;62338;48.832;9.422;2023-05-10T00:11:58;12.00;99.90
4787;DHT22;62338;48.832;9.422;2023-05-10T00:14:00;12.00;99.90
4787;DHT22;62338;48.832;9.422;2023-05-10T00:16:02;12.00;99.90
4787;DHT22;62338;48.832;9.422;2023-05-10T00:18:04;12.10;99.90
4787;DHT22;62338;48.832;9.422;2023-05-10T00:20:06;12.10;99.90
4787;DHT22;62338;48.832;9.422;2023-05-10T00:22:08;12.00;99.90
4787;DHT22;62338;48.832;9.422;2023-05-10T00:24:10;12.00;99.90
4787;DHT22;62338;48.832;9.422;2023-05-10T00:26:12;11.90;99.90
4787;DHT22;62338;48.832;9.422;2023-05-10T00:28:14;11.80;99.90
4787;DHT22;62338;48.832;9.422;2023-05-10T00:30:15;11.80;99.90
4787;DHT22;62338;48.832;9.422;2023-05-10T00:32:18;11.70;99.90
4787;DHT22;62338;48.832;9.422;2023-05-10T00:34:19;11.60;99.90
4787;DHT22;62338;48.832;9.422;2023-05-10T00:36:21;11.50;99.90
4787;DHT22;62338;48.832;9.422;2023-05-10T00:38:23;11.40;99.90
4787;DHT22;62338;48.832;9.422;2023-05-10T00:40:25;11.30;99.90
4787;DHT22;62338;48.832;9.422;2023-05-10T00:42:26;11.20;99.90
4787;DHT22;62338;48.832;9.422;2023-05-10T00:44:28;11.20;99.90
4787;DHT22;62338;48.832;9.422;2023-05-10T00:46:30;11.10;99.90
4787;DHT22;62338;48.832;9.422;2023-05-10T00:48:32;11.10;99.90
4787;DHT22;62338;48.832;9.422;2023-05-10T00:50:34;11.00;99.90
4787;DHT22;62338;48.832;9.422;2023-05-10T00:52:36;11.00;99.90
4787;DHT22;62338;48.832;9.422;2023-05-10T00:54:38;10.90;99.90
4787;DHT22;62338;48.832;9.422;2023-05-10T00:56:40;11.00;99.90
4787;DHT22;62338;48.832;9.422;2023-05-10T00:58:42;10.90;99.90
4787;DHT22;62338;48.832;9.422;2023-05-10T01:00:46;10.90;99.90
4787;DHT22;62338;48.832;9.422;2023-05-10T01:02:49;10.90;99.90
4787;DHT22;62338;48.832;9.422;2023-05-10T01:04:51;10.90;99.90
4787;DHT22;62338;48.832;9.422;2023-05-10T01:06:53;10.90;99.90
4787;DHT22;62338;48.832;9.422;2023-05-10T01:08:55;11.00;99.90
4787;DHT22;62338;48.832;9.422;2023-05-10T01:10:57;11.00;99.90
4787;DHT22;62338;48.832;9.422;2023-05-10T01:12:59;10.90;99.90
4787;DHT22;62338;48.832;9.422;2023-05-10T01:15:03;10.90;99.90
4787;DHT22;62338;48.832;9.422;2023-05-10T01:17:06;11.00;99.90
4787;DHT22;62338;48.832;9.422;2023-05-10T01:19:17;10.90;99.90
4787;DHT22;62338;48.832;9.422;2023-05-10T01:34:02;10.80;99.90
4787;DHT22;62338;48.832;9.422;2023-05-10T01:38:53;10.80;99.90
4787;DHT22;62338;48.832;9.422;2023-05-10T01:43:05;10.80;99.90
4787;DHT22;62338;48.832;9.422;2023-05-10T01:47:41;10.80;99.90
4787;DHT22;62338;48.832;9.422;2023-05-10T01:49:49;10.70;99.90
4787;DHT22;62338;48.832;9.422;2023-05-10T01:51:53;10.70;99.90
4787;DHT22;62338;48.832;9.422;2023-05-10T01:54:02;10.70;99.90
4787;DHT22;62338;48.832;9.422;2023-05-10T01:56:05;10.60;99.90
4787;DHT22;62338;48.832;9.422;2023-05-10T01:58:10;10.70;99.90
4787;DHT22;62338;48.832;9.422;2023-05-10T02:00:14;10.70;99.90
4787;DHT22;62338;48.832;9.422;2023-05-10T02:02:20;10.60;99.90
4787;DHT22;62338;48.832;9.422;2023-05-10T02:04:23;10.60;99.90
4787;DHT22;62338;48.832;9.422;2023-05-10T02:06:27;10.60;99.90
4787;DHT22;62338;48.832;9.422;2023-05-10T02:08:29;10.60;99.90
4787;DHT22;62338;48.832;9.422;2023-05-10T02:10:33;10.60;99.90
4787;DHT22;62338;48.832;9.422;2023-05-10T02:12:37;10.60;99.90
4787;DHT22;62338;48.832;9.422;2023-05-10T02:14:41;10.60;99.90
4787;DHT22;62338;48.832;9.422;2023-05-10T02:16:44;10.60;99.90
4787;DHT22;62338;48.832;9.422;2023-05-10T02:18:48;10.60;99.90
4787;DHT22;62338;48.832;9.422;2023-05-10T02:21:01;10.60;99.90
4787;DHT22;62338;48.832;9.422;2023-05-10T02:23:04;10.60;99.90
4787;DHT22;62338;48.832;9.422;2023-05-10T02:25:07;10.60;99.90
4787;DHT22;62338;48.832;9.422;2023-05-10T02:27:10;10.60;99.90
4787;DHT22;62338;48.832;9.422;2023-05-10T02:29:14;10.60;99.90
4787;DHT22;62338;48.832;9.422;2023-05-10T02:31:17;10.60;99.90
4787;DHT22;62338;48.832;9.422;2023-05-10T02:33:21;10.50;99.90
4787;DHT22;62338;48.832;9.422;2023-05-10T02:35:25;10.50;99.90
4787;DHT22;62338;48.832;9.422;2023-05-10T02:37:28;10.50;99.90
4787;DHT22;62338;48.832;9.422;2023-05-10T02:39:31;10.40;99.90
4787;DHT22;62338;48.832;9.422;2023-05-10T02:41:33;10.40;99.90
4787;DHT22;62338;48.832;9.422;2023-05-10T02:43:35;10.40;99.90
4787;DHT22;62338;48.832;9.422;2023-05-10T02:45:39;10.40;99.90
4787;DHT22;62338;48.832;9.422;2023-05-10T02:47:41;10.40;99.90
4787;DHT22;62338;48.832;9.422;2023-05-10T02:49:43;10.40;99.90
4787;DHT22;62338;48.832;9.422;2023-05-10T02:51:50;10.40;99.90
4787;DHT22;62338;48.832;9.422;2023-05-10T02:53:53;10.40;99.90
4787;DHT22;62338;48.832;9.422;2023-05-10T02:55:59;10.50;99.90
4787;DHT22;62338;48.832;9.422;2023-05-10T02:58:02;10.50;99.90
4787;DHT22;62338;48.832;9.422;2023-05-10T03:00:05;10.50;99.90
4787;DHT22;62338;48.832;9.422;2023-05-10T03:02:08;10.50;99.90
4787;DHT22;62338;48.832;9.422;2023-05-10T03:04:10;10.50;99.90
4787;DHT22;62338;48.832;9.422;2023-05-10T03:06:12;10.50;99.90
4787;DHT22;62338;48.832;9.422;2023-05-10T03:08:13;10.60;99.90
4787;DHT22;62338;48.832;9.422;2023-05-10T03:10:16;10.60;99.90
4787;DHT22;62338;48.832;9.422;2023-05-10T03:19:34;10.60;99.90
4787;DHT22;62338;48.832;9.422;2023-05-10T03:21:41;10.60;99.90
4787;DHT22;62338;48.832;9.422;2023-05-10T03:23:52;10.60;99.90
4787;DHT22;62338;48.832;9.422;2023-05-10T03:25:58;10.50;99.90
4787;DHT22;62338;48.832;9.422;2023-05-10T03:28:01;10.60;99.90
4787;DHT22;62338;48.832;9.422;2023-05-10T03:30:05;10.60;99.90
4787;DHT22;62338;48.832;9.422;2023-05-10T03:32:09;10.60;99.90
4787;DHT22;62338;48.832;9.422;2023-05-10T03:34:10;10.60;99.90
4787;DHT22;62338;48.832;9.422;2023-05-10T03:36:12;10.60;99.90
4787;DHT22;62338;48.832;9.422;2023-05-10T03:38:14;10.60;99.90
4787;DHT22;62338;48.832;9.422;2023-05-10T03:40:16;10.60;99.90
4787;DHT22;62338;48.832;9.422;2023-05-10T03:42:18;10.60;99.90
4787;DHT22;62338;48.832;9.422;2023-05-10T03:44:20;10.60;99.90
4787;DHT22;62338;48.832;9.422;2023-05-10T03:46:22;10.60;99.90
4787;DHT22;62338;48.832;9.422;2023-05-10T03:48:24;10.60;99.90
4787;DHT22;62338;48.832;9.422;2023-05-10T03:50:25;10.60;99.90
4787;DHT22;62338;48.832;9.422;2023-05-10T03:52:27;10.60;99.90
4787;DHT22;62338;48.832;9.422;2023-05-10T03:54:29;10.60;99.90
4787;DHT22;62338;48.832;9.422;2023-05-10T03:56:31;10.60;99.90
4787;DHT22;62338;48.832;9.422;2023-05-10T03:58:32;10.60;99.90
4787;DHT22;62338;48.832;9.422;2023-05-10T04:00:34;10.60;99.90
4787;DHT22;62338;48.832;9.422;2023-05-10T04:02:36;10.70;99.90
4787;DHT22;62338;48.832;9.422;2023-05-10T04:04:39;10.70;99.90
4787;DHT22;62338;48.832;9.422;2023-05-10T04:06:40;10.60;99.90
4787;DHT22;62338;48.832;9.422;2023-05-10T04:08:42;10.70;99.90
4787;DHT22;62338;48.832;9.422;2023-05-10T04:10:44;10.70;99.90
4787;DHT22;62338;48.832;9.422;2023-05-10T04:12:46;10.70;99.90
4787;DHT22;62338;48.832;9.422;2023-05-10T04:14:47;10.70;99.90
4787;DHT22;62338;48.832;9.422;2023-05-10T04:16:49;10.70;99.90
4787;DHT22;62338;48.832;9.422;2023-05-10T04:18:51;10.70;99.90
4787;DHT22;62338;48.832;9.422;2023-05-10T04:20:52;10.70;99.90
4787;DHT22;62338;48.832;9.422;2023-05-10T04:22:54;10.70;99.90
4787;DHT22;62338;48.832;9.422;2023-05-10T04:24:56;10.70;99.90
4787;DHT22;62338;48.832;9.422;2023-05-10T04:26:58;10.70;99.90
4787;DHT22;62338;48.832;9.422;2023-05-10T04:28:59;10.70;99.90
4787;DHT22;62338;48.832;9.422;2023-05-10T04:31:02;10.70;99.90
4787;DHT22;62338;48.832;9.422;2023-05-10T04:33:04;10.70;99.90
4787;DHT22;62338;48.832;9.422;2023-05-10T04:35:07;10.80;99.90
4787;DHT22;62338;48.832;9.422;2023-05-10T04:37:08;10.80;99.90
4787;DHT22;62338;48.832;9.422;2023-05-10T04:39:10;10.80;99.90
4787;DHT22;62338;48.832;9.422;2023-05-10T04:41:12;10.80;99.90
4787;DHT22;62338;48.832;9.422;2023-05-10T04:43:14;10.80;99.90
4787;DHT22;62338;48.832;9.422;2023-05-10T04:45:15;10.90;99.90
4787;DHT22;62338;48.832;9.422;2023-05-10T04:47:18;10.90;99.90
4787;DHT22;62338;48.832;9.422;2023-05-10T04:49:19;10.90;99.90
4787;DHT22;62338;48.832;9.422;2023-05-10T04:51:21;11.00;99.90
4787;DHT22;62338;48.832;9.422;2023-05-10T04:53:23;11.00;99.90
4787;DHT22;62338;48.832;9.422;2023-05-10T04:55:25;11.00;99.90
4787;DHT22;62338;48.832;9.422;2023-05-10T04:57:28;11.10;99.90
4787;DHT22;62338;48.832;9.422;2023-05-10T04:59:29;11.10;99.90
4787;DHT22;62338;48.832;9.422;2023-05-10T05:01:31;11.10;99.90
4787;DHT22;62338;48.832;9.422;2023-05-10T05:03:33;11.10;99.90
4787;DHT22;62338;48.832;9.422;2023-05-10T05:05:35;11.10;99.90
4787;DHT22;62338;48.832;9.422;2023-05-10T05:07:37;11.10;99.90
4787;DHT22;62338;48.832;9.422;2023-05-10T05:09:39;11.10;99.90
4787;DHT22;62338;48.832;9.422;2023-05-10T05:11:41;11.10;99.90
4787;DHT22;62338;48.832;9.422;2023-05-10T05:13:43;11.00;99.90
4787;DHT22;62338;48.832;9.422;2023-05-10T05:15:45;11.10;99.90
4787;DHT22;62338;48.832;9.422;2023-05-10T05:17:47;11.10;99.90
4787;DHT22;62338;48.832;9.422;2023-05-10T05:19:49;11.20;99.90
4787;DHT22;62338;48.832;9.422;2023-05-10T05:21:50;11.20;99.90
4787;DHT22;62338;48.832;9.422;2023-05-10T05:23:52;11.30;99.90
4787;DHT22;62338;48.832;9.422;2023-05-10T05:25:54;11.40;99.90
4787;DHT22;62338;48.832;9.422;2023-05-10T05:27:56;11.40;99.90
4787;DHT22;62338;48.832;9.422;2023-05-10T05:29:58;11.50;99.90
4787;DHT22;62338;48.832;9.422;2023-05-10T05:31:59;11.60;99.90
4787;DHT22;62338;48.832;9.422;2023-05-10T05:34:01;11.70;99.90
4787;DHT22;62338;48.832;9.422;2023-05-10T05:36:04;11.70;99.90
4787;DHT22;62338;48.832;9.422;2023-05-10T05:38:06;11.70;99.90
4787;DHT22;62338;48.832;9.422;2023-05-10T05:40:08;11.60;99.90
4787;DHT22;62338;48.832;9.422;2023-05-10T05:42:13;11.70;99.90
4787;DHT22;62338;48.832;9.422;2023-05-10T05:44:16;11.70;99.90
4787;DHT22;62338;48.832;9.422;2023-05-10T05:46:17;11.80;99.90
4787;DHT22;62338;48.832;9.422;2023-05-10T05:48:19;11.80;99.90
4787;DHT22;62338;48.832;9.422;2023-05-10T05:50:21;11.90;99.90
4787;DHT22;62338;48.832;9.422;2023-05-10T05:52:23;11.90;99.90
4787;DHT22;62338;48.832;9.422;2023-05-10T05:54:25;11.90;99.90
4787;DHT22;62338;48.832;9.422;2023-05-10T05:56:26;12.00;99.90
4787;DHT22;62338;48.832;9.422;2023-05-10T05:58:28;12.00;99.90
4787;DHT22;62338;48.832;9.422;2023-05-10T06:00:30;12.10;99.90
4787;DHT22;62338;48.832;9.422;2023-05-10T06:02:32;12.10;99.90
4787;DHT22;62338;48.832;9.422;2023-05-10T06:04:34;12.10;99.90
4787;DHT22;62338;48.832;9.422;2023-05-10T06:06:36;12.00;99.90
4787;DHT22;62338;48.832;9.422;2023-05-10T06:08:38;12.00;99.90
4787;DHT22;62338;48.832;9.422;2023-05-10T06:10:39;12.00;99.90
4787;DHT22;62338;48.832;9.422;2023-05-10T06:12:41;11.90;99.90
4787;DHT22;62338;48.832;9.422;2023-05-10T06:14:43;11.90;99.90
4787;DHT22;62338;48.832;9.422;2023-05-10T06:16:44;11.90;99.90
4787;DHT22;62338;48.832;9.422;2023-05-10T06:18:46;11.80;99.90
4787;DHT22;62338;48.832;9.422;2023-05-10T06:20:49;11.80;99.90
4787;DHT22;62338;48.832;9.422;2023-05-10T06:22:51;11.80;99.90
4787;DHT22;62338;48.832;9.422;2023-05-10T06:24:52;11.80;99.90
4787;DHT22;62338;48.832;9.422;2023-05-10T06:26:54;11.90;99.90
4787;DHT22;62338;48.832;9.422;2023-05-10T06:28:56;12.00;99.90
4787;DHT22;62338;48.832;9.422;2023-05-10T06:30:58;12.00;99.90
4787;DHT22;62338;48.832;9.422;2023-05-10T06:32:59;12.00;99.90
4787;DHT22;62338;48.832;9.422;2023-05-10T06:35:01;12.10;99.90
4787;DHT22;62338;48.832;9.422;2023-05-10T06:37:03;12.10;99.90
4787;DHT22;62338;48.832;9.422;2023-05-10T06:39:05;12.10;99.90
4787;DHT22;62338;48.832;9.422;2023-05-10T06:41:07;12.10;99.90
4787;DHT22;62338;48.832;9.422;2023-05-10T06:43:09;12.00;99.90
4787;DHT22;62338;48.832;9.422;2023-05-10T06:45:11;11.90;99.90
4787;DHT22;62338;48.832;9.422;2023-05-10T06:47:13;11.80;99.90
4787;DHT22;62338;48.832;9.422;2023-05-10T06:49:15;11.90;99.90
4787;DHT22;62338;48.832;9.422;2023-05-10T06:51:17;11.90;99.90
4787;DHT22;62338;48.832;9.422;2023-05-10T06:53:19;11.90;99.90
4787;DHT22;62338;48.832;9.422;2023-05-10T06:55:21;12.00;99.90
4787;DHT22;62338;48.832;9.422;2023-05-10T06:57:22;12.10;99.90
4787;DHT22;62338;48.832;9.422;2023-05-10T06:59:30;12.10;99.90
4787;DHT22;62338;48.832;9.422;2023-05-10T07:01:33;12.00;99.90
4787;DHT22;62338;48.832;9.422;2023-05-10T07:03:34;12.00;99.90
4787;DHT22;62338;48.832;9.422;2023-05-10T07:05:36;12.00;99.90
4787;DHT22;62338;48.832;9.422;2023-05-10T07:07:38;12.00;99.90
4787;DHT22;62338;48.832;9.422;2023-05-10T07:09:40;12.10;99.90
4787;DHT22;62338;48.832;9.422;2023-05-10T07:11:42;12.20;99.90
4787;DHT22;62338;48.832;9.422;2023-05-10T07:13:43;12.40;99.90
4787;DHT22;62338;48.832;9.422;2023-05-10T07:15:47;12.40;99.90
4787;DHT22;62338;48.832;9.422;2023-05-10T07:17:49;12.50;99.90
4787;DHT22;62338;48.832;9.422;2023-05-10T07:19:51;12.70;99.90
4787;DHT22;62338;48.832;9.422;2023-05-10T07:21:53;13.00;99.90
4787;DHT22;62338;48.832;9.422;2023-05-10T07:23:55;13.10;99.90
4787;DHT22;62338;48.832;9.422;2023-05-10T07:25:57;13.20;99.90
4787;DHT22;62338;48.832;9.422;2023-05-10T07:27:59;13.30;99.90
4787;DHT22;62338;48.832;9.422;2023-05-10T07:30:00;13.40;99.90
4787;DHT22;62338;48.832;9.422;2023-05-10T07:32:03;13.30;99.90
4787;DHT22;62338;48.832;9.422;2023-05-10T07:34:04;13.20;99.90
4787;DHT22;62338;48.832;9.422;2023-05-10T07:36:07;13.00;99.90
4787;DHT22;62338;48.832;9.422;2023-05-10T07:38:08;12.90;99.90
4787;DHT22;62338;48.832;9.422;2023-05-10T07:40:12;12.70;99.90
4787;DHT22;62338;48.832;9.422;2023-05-10T07:42:14;12.60;99.90
4787;DHT22;62338;48.832;9.422;2023-05-10T07:44:15;12.70;99.90
4787;DHT22;62338;48.832;9.422;2023-05-10T07:46:20;12.80;99.90
4787;DHT22;62338;48.832;9.422;2023-05-10T07:48:22;13.10;99.90
4787;DHT22;62338;48.832;9.422;2023-05-10T07:50:23;13.30;99.90
4787;DHT22;62338;48.832;9.422;2023-05-10T07:52:25;13.60;99.90
4787;DHT22;62338;48.832;9.422;2023-05-10T07:54:27;13.70;99.90
4787;DHT22;62338;48.832;9.422;2023-05-10T07:56:30;13.70;99.90
4787;DHT22;62338;48.832;9.422;2023-05-10T07:58:33;13.70;99.90
4787;DHT22;62338;48.832;9.422;2023-05-10T08:00:35;13.70;99.90
4787;DHT22;62338;48.832;9.422;2023-05-10T08:02:38;13.90;99.90
4787;DHT22;62338;48.832;9.422;2023-05-10T08:04:40;14.00;99.90
4787;DHT22;62338;48.832;9.422;2023-05-10T08:06:42;14.30;99.90
4787;DHT22;62338;48.832;9.422;2023-05-10T08:08:43;14.40;99.90
4787;DHT22;62338;48.832;9.422;2023-05-10T08:10:47;14.50;99.90
4787;DHT22;62338;48.832;9.422;2023-05-10T08:12:48;14.40;99.90
4787;DHT22;62338;48.832;9.422;2023-05-10T08:14:50;14.20;99.90
4787;DHT22;62338;48.832;9.422;2023-05-10T08:16:52;14.20;99.90
4787;DHT22;62338;48.832;9.422;2023-05-10T08:18:53;14.20;99.90
4787;DHT22;62338;48.832;9.422;2023-05-10T08:20:56;14.10;99.90
4787;DHT22;62338;48.832;9.422;2023-05-10T08:22:58;14.20;99.90
4787;DHT22;62338;48.832;9.422;2023-05-10T08:25:00;14.00;99.90
4787;DHT22;62338;48.832;9.422;2023-05-10T08:27:02;13.90;99.90
4787;DHT22;62338;48.832;9.422;2023-05-10T08:29:04;13.90;99.90
4787;DHT22;62338;48.832;9.422;2023-05-10T08:31:06;13.90;99.90
4787;DHT22;62338;48.832;9.422;2023-05-10T08:33:08;13.90;99.90
4787;DHT22;62338;48.832;9.422;2023-05-10T08:35:09;14.10;40.60
4787;DHT22;62338;48.832;9.422;2023-05-10T08:37:11;14.00;99.90
4787;DHT22;62338;48.832;9.422;2023-05-10T08:39:15;14.00;45.40
4787;DHT22;62338;48.832;9.422;2023-05-10T08:41:32;13.80;76.40
4787;DHT22;62338;48.832;9.422;2023-05-10T08:43:35;13.80;76.70
4787;DHT22;62338;48.832;9.422;2023-05-10T08:45:39;13.70;77.50
4787;DHT22;62338;48.832;9.422;2023-05-10T08:47:41;13.60;99.90
4787;DHT22;62338;48.832;9.422;2023-05-10T08:49:46;13.60;99.90
4787;DHT22;62338;48.832;9.422;2023-05-10T08:51:52;13.60;99.90
4787;DHT22;62338;48.832;9.422;2023-05-10T08:53:56;13.60;99.90
4787;DHT22;62338;48.832;9.422;2023-05-10T08:55:58;13.70;99.90
4787;DHT22;62338;48.832;9.422;2023-05-10T08:58:00;13.70;99.90
4787;DHT22;62338;48.832;9.422;2023-05-10T09:00:03;13.90;15.40
4787;DHT22;62338;48.832;9.422;2023-05-10T09:02:05;13.90;26.80
4787;DHT22;62338;48.832;9.422;2023-05-10T09:04:07;14.00;30.10
4787;DHT22;62338;48.832;9.422;2023-05-10T09:06:11;14.30;21.30
4787;DHT22;62338;48.832;9.422;2023-05-10T09:08:15;14.40;1.00
4787;DHT22;62338;48.832;9.422;2023-05-10T09:10:18;14.40;1.00
4787;DHT22;62338;48.832;9.422;2023-05-10T09:12:20;14.80;35.80
4787;DHT22;62338;48.832;9.422;2023-05-10T09:14:23;15.00;1.00
4787;DHT22;62338;48.832;9.422;2023-05-10T09:16:26;14.90;1.00
4787;DHT22;62338;48.832;9.422;2023-05-10T09:18:28;14.80;1.00
4787;DHT22;62338;48.832;9.422;2023-05-10T09:20:29;14.50;1.00
4787;DHT22;62338;48.832;9.422;2023-05-10T09:22:33;14.40;1.00
4787;DHT22;62338;48.832;9.422;2023-05-10T09:24:35;14.30;3.90
4787;DHT22;62338;48.832;9.422;2023-05-10T09:26:48;14.30;46.30
4787;DHT22;62338;48.832;9.422;2023-05-10T09:28:57;14.40;1.00
4787;DHT22;62338;48.832;9.422;2023-05-10T09:31:00;14.60;1.00
4787;DHT22;62338;48.832;9.422;2023-05-10T09:33:02;14.90;1.00
4787;DHT22;62338;48.832;9.422;2023-05-10T09:37:13;15.60;1.00
4787;DHT22;62338;48.832;9.422;2023-05-10T09:39:15;15.90;1.00
4787;DHT22;62338;48.832;9.422;2023-05-10T09:41:23;16.30;1.00
4787;DHT22;62338;48.832;9.422;2023-05-10T09:43:26;16.60;99.90
4787;DHT22;62338;48.832;9.422;2023-05-10T09:45:30;16.90;1.00
4787;DHT22;62338;48.832;9.422;2023-05-10T09:47:36;16.90;1.00
4787;DHT22;62338;48.832;9.422;2023-05-10T09:49:38;17.10;99.90
4787;DHT22;62338;48.832;9.422;2023-05-10T09:51:40;16.80;99.90
4787;DHT22;62338;48.832;9.422;2023-05-10T09:53:42;16.60;80.20
4787;DHT22;62338;48.832;9.422;2023-05-10T09:55:45;16.80;99.90
4787;DHT22;62338;48.832;9.422;2023-05-10T09:57:48;16.80;99.90
4787;DHT22;62338;48.832;9.422;2023-05-10T09:59:50;16.50;99.90
4787;DHT22;62338;48.832;9.422;2023-05-10T10:01:56;16.50;99.90
4787;DHT22;62338;48.832;9.422;2023-05-10T10:03:58;16.30;99.90
4787;DHT22;62338;48.832;9.422;2023-05-10T10:06:00;16.70;1.00
4787;DHT22;62338;48.832;9.422;2023-05-10T10:08:05;17.10;99.90
4787;DHT22;62338;48.832;9.422;2023-05-10T10:10:07;17.30;1.00
4787;DHT22;62338;48.832;9.422;2023-05-10T10:12:13;17.30;99.90
4787;DHT22;62338;48.832;9.422;2023-05-10T10:14:14;17.20;1.00
4787;DHT22;62338;48.832;9.422;2023-05-10T10:16:17;17.50;1.00
4787;DHT22;62338;48.832;9.422;2023-05-10T10:18:19;17.70;1.00
4787;DHT22;62338;48.832;9.422;2023-05-10T10:20:25;18.10;1.00
4787;DHT22;62338;48.832;9.422;2023-05-10T10:22:28;18.50;1.00
4787;DHT22;62338;48.832;9.422;2023-05-10T10:24:29;17.70;30.90
4787;DHT22;62338;48.832;9.422;2023-05-10T10:26:35;17.10;1.00
4787;DHT22;62338;48.832;9.422;2023-05-10T10:29:31;16.60;99.90
4787;DHT22;62338;48.832;9.422;2023-05-10T10:34:30;16.30;1.00
4787;DHT22;62338;48.832;9.422;2023-05-10T10:36:15;16.50;99.90
4787;DHT22;62338;48.832;9.422;2023-05-10T10:38:17;16.50;99.90
4787;DHT22;62338;48.832;9.422;2023-05-10T10:40:29;16.30;1.00
4787;DHT22;62338;48.832;9.422;2023-05-10T10:42:44;15.90;1.00
4787;DHT22;62338;48.832;9.422;2023-05-10T10:44:47;15.60;1.00
4787;DHT22;62338;48.832;9.422;2023-05-10T10:49:33;15.00;1.00
4787;DHT22;62338;48.832;9.422;2023-05-10T10:51:38;14.90;1.00
4787;DHT22;62338;48.832;9.422;2023-05-10T10:53:41;14.70;1.00
4787;DHT22;62338;48.832;9.422;2023-05-10T10:55:48;14.80;1.00
4787;DHT22;62338;48.832;9.422;2023-05-10T10:57:55;14.80;1.00
4787;DHT22;62338;48.832;9.422;2023-05-10T11:00:37;14.90;1.00
4787;DHT22;62338;48.832;9.422;2023-05-10T11:02:44;15.10;1.00
4787;DHT22;62338;48.832;9.422;2023-05-10T11:04:47;15.10;1.00
4787;DHT22;62338;48.832;9.422;2023-05-10T11:06:49;15.00;1.00
4787;DHT22;62338;48.832;9.422;2023-05-10T11:08:51;14.80;1.00
4787;DHT22;62338;48.832;9.422;2023-05-10T11:11:04;14.80;1.00
4787;DHT22;62338;48.832;9.422;2023-05-10T11:13:09;14.80;1.00
4787;DHT22;62338;48.832;9.422;2023-05-10T11:15:11;14.80;1.00
4787;DHT22;62338;48.832;9.422;2023-05-10T11:17:23;14.90;1.00
4787;DHT22;62338;48.832;9.422;2023-05-10T11:19:27;15.00;1.00
4787;DHT22;62338;48.832;9.422;2023-05-10T11:21:33;15.10;99.90
4787;DHT22;62338;48.832;9.422;2023-05-10T11:23:56;15.20;99.90
4787;DHT22;62338;48.832;9.422;2023-05-10T11:25:59;15.30;99.90
4787;DHT22;62338;48.832;9.422;2023-05-10T11:28:02;15.40;99.90
4787;DHT22;62338;48.832;9.422;2023-05-10T11:30:06;15.60;99.90
4787;DHT22;62338;48.832;9.422;2023-05-10T11:32:09;15.60;99.90
4787;DHT22;62338;48.832;9.422;2023-05-10T11:34:11;15.60;99.90
4787;DHT22;62338;48.832;9.422;2023-05-10T11:36:15;15.50;99.90
4787;DHT22;62338;48.832;9.422;2023-05-10T11:38:17;15.60;99.90
4787;DHT22;62338;48.832;9.422;2023-05-10T11:40:21;15.80;1.00
4787;DHT22;62338;48.832;9.422;2023-05-10T11:42:22;15.80;99.90
4787;DHT22;62338;48.832;9.422;2023-05-10T11:44:32;15.50;1.00
4787;DHT22;62338;48.832;9.422;2023-05-10T11:46:34;15.50;99.90
4787;DHT22;62338;48.832;9.422;2023-05-10T11:48:38;15.20;99.90
4787;DHT22;62338;48.832;9.422;2023-05-10T11:50:40;15.20;99.90
4787;DHT22;62338;48.832;9.422;2023-05-10T11:52:41;15.20;99.90
4787;DHT22;62338;48.832;9.422;2023-05-10T11:54:53;14.80;99.90
4787;DHT22;62338;48.832;9.422;2023-05-10T11:56:56;14.60;99.90
4787;DHT22;62338;48.832;9.422;2023-05-10T11:58:58;14.40;99.90
4787;DHT22;62338;48.832;9.422;2023-05-10T12:01:00;14.40;1.00
4787;DHT22;62338;48.832;9.422;2023-05-10T12:03:03;14.30;1.00
4787;DHT22;62338;48.832;9.422;2023-05-10T12:05:05;14.20;1.00
4787;DHT22;62338;48.832;9.422;2023-05-10T12:07:08;14.10;1.00
4787;DHT22;62338;48.832;9.422;2023-05-10T12:09:10;14.30;1.00
4787;DHT22;62338;48.832;9.422;2023-05-10T12:11:13;14.60;1.00
4787;DHT22;62338;48.832;9.422;2023-05-10T12:13:19;14.80;99.90
4787;DHT22;62338;48.832;9.422;2023-05-10T12:15:23;14.90;1.00
4787;DHT22;62338;48.832;9.422;2023-05-10T12:17:29;15.10;99.90
4787;DHT22;62338;48.832;9.422;2023-05-10T12:19:37;15.30;1.00
4787;DHT22;62338;48.832;9.422;2023-05-10T12:21:40;15.30;97.30
4787;DHT22;62338;48.832;9.422;2023-05-10T12:23:45;15.40;99.90
4787;DHT22;62338;48.832;9.422;2023-05-10T12:25:47;15.20;99.90
4787;DHT22;62338;48.832;9.422;2023-05-10T12:27:51;15.20;45.60
4787;DHT22;62338;48.832;9.422;2023-05-10T12:29:53;14.90;35.60
4787;DHT22;62338;48.832;9.422;2023-05-10T12:31:57;14.60;99.90
4787;DHT22;62338;48.832;9.422;2023-05-10T12:33:59;14.20;1.00
4787;DHT22;62338;48.832;9.422;2023-05-10T12:36:02;14.10;1.00
4787;DHT22;62338;48.832;9.422;2023-05-10T12:38:26;14.10;99.90
4787;DHT22;62338;48.832;9.422;2023-05-10T12:40:30;14.20;94.70
4787;DHT22;62338;48.832;9.422;2023-05-10T12:42:32;14.20;1.00
4787;DHT22;62338;48.832;9.422;2023-05-10T12:44:34;14.30;1.00
4787;DHT22;62338;48.832;9.422;2023-05-10T12:46:35;14.40;1.00
4787;DHT22;62338;48.832;9.422;2023-05-10T12:48:38;14.40;1.00
4787;DHT22;62338;48.832;9.422;2023-05-10T12:50:40;14.30;99.90
4787;DHT22;62338;48.832;9.422;2023-05-10T12:52:42;14.30;1.00
4787;DHT22;62338;48.832;9.422;2023-05-10T12:54:44;14.30;1.00
4787;DHT22;62338;48.832;9.422;2023-05-10T12:56:46;14.40;99.90
4787;DHT22;62338;48.832;9.422;2023-05-10T12:58:48;14.10;99.90
4787;DHT22;62338;48.832;9.422;2023-05-10T13:00:50;14.10;1.00
4787;DHT22;62338;48.832;9.422;2023-05-10T13:02:54;14.10;1.00
4787;DHT22;62338;48.832;9.422;2023-05-10T13:04:55;14.20;1.00
4787;DHT22;62338;48.832;9.422;2023-05-10T13:06:57;14.20;1.00
4787;DHT22;62338;48.832;9.422;2023-05-10T13:09:00;14.30;99.90
4787;DHT22;62338;48.832;9.422;2023-05-10T13:11:02;14.40;1.00
4787;DHT22;62338;48.832;9.422;2023-05-10T13:13:04;14.50;1.00
4787;DHT22;62338;48.832;9.422;2023-05-10T13:15:07;14.80;1.00
4787;DHT22;62338;48.832;9.422;2023-05-10T13:17:08;15.00;1.00
4787;DHT22;62338;48.832;9.422;2023-05-10T13:19:10;15.20;94.40
4787;DHT22;62338;48.832;9.422;2023-05-10T13:21:13;15.30;1.00
4787;DHT22;62338;48.832;9.422;2023-05-10T13:23:14;15.50;99.90
4787;DHT22;62338;48.832;9.422;2023-05-10T13:25:16;15.70;98.90
4787;DHT22;62338;48.832;9.422;2023-05-10T13:27:18;15.50;99.90
4787;DHT22;62338;48.832;9.422;2023-05-10T13:29:19;15.40;99.90
4787;DHT22;62338;48.832;9.422;2023-05-10T13:31:22;15.30;99.90
4787;DHT22;62338;48.832;9.422;2023-05-10T13:33:24;15.30;1.00
4787;DHT22;62338;48.832;9.422;2023-05-10T13:35:25;15.30;1.00
4787;DHT22;62338;48.832;9.422;2023-05-10T13:37:27;15.00;1.00
4787;DHT22;62338;48.832;9.422;2023-05-10T13:39:29;15.00;1.00
4787;DHT22;62338;48.832;9.422;2023-05-10T13:41:34;14.80;99.90
4787;DHT22;62338;48.832;9.422;2023-05-10T13:43:36;14.60;99.90
4787;DHT22;62338;48.832;9.422;2023-05-10T13:45:38;14.40;1.00
4787;DHT22;62338;48.832;9.422;2023-05-10T13:47:40;14.30;99.90
4787;DHT22;62338;48.832;9.422;2023-05-10T13:49:42;14.20;99.90